Time;durP1;ratioP1;P1;durP2;ratioP2;P2;SDS_P1;SDS_P2;PMS_P1;PMS_P2;Temp;Humidity;BMP_temperature;BMP_pressure;BME280_temperature;BME280_humidity;BME280_pressure;Samples;Min_cycle;Max_cycle;Signal;HPM_P1;HPM_P2
2022/01/25 00:31:10;;;;;;;20.37;12.47;;;5.70;99.90;;;;;;5055262;28;20182;-77
2022/01/25 00:33:37;;;;;;;21.17;12.73;;;5.80;99.90;;;;;;5055297;28;20231;-77
2022/01/25 00:36:06;;;;;;;22.17;12.77;;;5.80;99.90;;;;;;5055071;28;20211;-76
2022/01/25 00:38:32;;;;;;;22.37;12.67;;;5.80;99.90;;;;;;5053042;28;20222;-77
2022/01/25 00:40:58;;;;;;;20.93;12.53;;;5.80;99.90;;;;;;5053711;28;20291;-77
2022/01/25 00:43:26;;;;;;;20.43;12.93;;;5.80;99.90;;;;;;5054783;28;20357;-77
2022/01/25 00:45:54;;;;;;;20.03;12.47;;;5.80;99.90;;;;;;5054786;28;20217;-77
2022/01/25 00:48:31;;;;;;;21.07;12.33;;;5.70;99.90;;;;;;5055104;28;20203;-77
2022/01/25 00:51:19;;;;;;;21.03;12.67;;;5.70;99.90;;;;;;5053318;28;20572;-77
2022/01/25 00:56:20;;;;;;;24.90;13.57;;;5.70;99.90;;;;;;5054819;28;20745;-77
2022/01/25 00:58:46;;;;;;;22.90;12.87;;;5.80;99.90;;;;;;5053964;28;20220;-77
2022/01/25 01:01:12;;;;;;;23.50;13.30;;;5.70;99.90;;;;;;5054293;28;20212;-76
2022/01/25 01:03:37;;;;;;;20.73;12.93;;;5.80;99.90;;;;;;5054955;28;20246;-76
2022/01/25 01:06:05;;;;;;;19.90;12.17;;;5.80;99.90;;;;;;5054079;28;20238;-76
2022/01/25 01:08:31;;;;;;;23.53;14.07;;;5.80;99.90;;;;;;5053599;28;20696;-76
2022/01/25 01:10:58;;;;;;;26.37;14.23;;;5.70;99.90;;;;;;5051546;28;20223;-77
2022/01/25 01:16:00;;;;;;;27.17;14.47;;;5.80;99.90;;;;;;5053415;28;20206;-76
2022/01/25 01:42:58;;;;;;;21.00;13.17;;;5.70;99.90;;;;;;5073272;28;20661;-77
2022/01/25 01:48:02;;;;;;;22.17;13.07;;;5.70;99.90;;;;;;5059430;28;20577;-76
2022/01/25 01:50:31;;;;;;;22.43;12.90;;;5.60;99.90;;;;;;5050976;28;20624;-76
2022/01/25 01:52:57;;;;;;;25.13;13.37;;;5.60;99.90;;;;;;5052789;28;20196;-77
2022/01/25 01:55:24;;;;;;;21.83;13.47;;;5.60;99.90;;;;;;5052237;28;20215;-75
2022/01/25 01:57:50;;;;;;;22.60;13.03;;;5.70;99.90;;;;;;5052438;28;20718;-76
2022/01/25 02:00:45;;;;;;;22.10;13.23;;;5.70;99.90;;;;;;5051265;28;20678;-76
2022/01/25 02:03:11;;;;;;;22.70;13.70;;;5.60;99.90;;;;;;5050993;28;20223;-76
2022/01/25 02:05:37;;;;;;;23.87;13.53;;;5.60;99.90;;;;;;5050927;28;20200;-76
2022/01/25 02:08:04;;;;;;;24.13;14.50;;;5.70;99.90;;;;;;5051952;28;20203;-76
2022/01/25 02:10:30;;;;;;;25.97;13.43;;;5.60;99.90;;;;;;5052005;28;20257;-76
2022/01/25 02:12:56;;;;;;;26.43;14.27;;;5.60;99.90;;;;;;5052425;28;20180;-76
2022/01/25 02:15:25;;;;;;;24.90;13.47;;;5.60;99.90;;;;;;5050965;28;20531;-76
2022/01/25 02:23:24;;;;;;;24.03;13.97;;;5.60;99.90;;;;;;5051334;28;20245;-77
2022/01/25 02:25:54;;;;;;;25.27;14.27;;;5.50;99.90;;;;;;5070592;28;20761;-76
2022/01/25 02:28:20;;;;;;;24.63;13.90;;;5.50;99.90;;;;;;5070140;28;20261;-76
2022/01/25 02:30:46;;;;;;;28.47;15.87;;;5.50;99.90;;;;;;5071306;28;20524;-75
2022/01/25 02:33:12;;;;;;;33.87;17.23;;;5.30;99.90;;;;;;5071686;28;20267;-76
2022/01/25 02:35:39;;;;;;;33.17;17.20;;;5.40;99.90;;;;;;5071628;28;20203;-77
2022/01/25 02:38:04;;;;;;;34.37;17.67;;;5.40;99.90;;;;;;5070182;28;20211;-76
2022/01/25 02:40:30;;;;;;;39.63;17.67;;;5.40;99.90;;;;;;5071456;28;20202;-76
2022/01/25 02:42:56;;;;;;;34.67;16.67;;;5.30;99.90;;;;;;5071675;28;20203;-76
2022/01/25 02:45:22;;;;;;;33.00;17.63;;;5.20;99.90;;;;;;5070485;28;20167;-75
2022/01/25 02:50:32;;;;;;;32.80;16.30;;;5.30;99.90;;;;;;5068612;28;20736;-77
2022/01/25 02:52:58;;;;;;;31.77;17.20;;;5.20;99.90;;;;;;5051593;28;20215;-76
2022/01/25 02:55:24;;;;;;;33.83;17.07;;;5.20;99.90;;;;;;5049714;28;20215;-76
2022/01/25 02:57:49;;;;;;;35.03;18.20;;;5.20;99.90;;;;;;5049966;28;20555;-76
2022/01/25 03:00:15;;;;;;;36.00;17.30;;;5.20;99.90;;;;;;5050048;28;20306;-77
2022/01/25 03:02:41;;;;;;;37.13;18.50;;;5.30;99.90;;;;;;5050761;28;20247;-76
2022/01/25 03:05:07;;;;;;;39.47;18.63;;;5.20;99.90;;;;;;5049812;28;20261;-77
2022/01/25 03:07:34;;;;;;;40.13;18.87;;;5.20;99.90;;;;;;5051393;28;20215;-76
2022/01/25 03:10:00;;;;;;;39.00;18.03;;;5.20;99.90;;;;;;5050683;28;20343;-77
2022/01/25 03:12:45;;;;;;;37.37;19.43;;;5.20;99.90;;;;;;5060552;28;20207;-76
2022/01/25 03:17:54;;;;;;;35.93;17.97;;;5.20;99.90;;;;;;5050556;28;20261;-76
2022/01/25 03:20:33;;;;;;;35.77;19.00;;;5.20;99.90;;;;;;5050889;28;20212;-76
2022/01/25 03:23:05;;;;;;;34.33;18.50;;;5.20;99.90;;;;;;5046489;28;20303;-76
2022/01/25 03:25:31;;;;;;;36.27;18.47;;;5.10;99.90;;;;;;5048654;28;20281;-76
2022/01/25 03:27:57;;;;;;;35.77;17.47;;;5.10;99.90;;;;;;5063871;28;20185;-77
2022/01/25 03:30:24;;;;;;;37.47;18.77;;;5.10;99.90;;;;;;5069837;28;20185;-76
2022/01/25 03:32:49;;;;;;;34.50;17.20;;;5.00;99.90;;;;;;5071008;28;20202;-77
2022/01/25 03:35:15;;;;;;;40.43;19.10;;;5.00;99.90;;;;;;5041013;28;20260;-77
2022/01/25 03:37:40;;;;;;;36.37;17.70;;;5.00;99.90;;;;;;5048339;28;20596;-76
2022/01/25 03:40:07;;;;;;;40.20;18.77;;;5.10;99.90;;;;;;5050358;28;20282;-77
2022/01/25 03:42:36;;;;;;;38.87;18.17;;;5.10;99.90;;;;;;5050927;28;20195;-77
2022/01/25 03:45:06;;;;;;;38.77;18.13;;;5.00;99.90;;;;;;5050408;28;20200;-76
2022/01/25 03:47:45;;;;;;;39.27;20.10;;;5.00;99.90;;;;;;5049170;28;20245;-76
2022/01/25 03:50:11;;;;;;;38.90;19.60;;;5.00;99.90;;;;;;5048911;28;20253;-76
2022/01/25 03:52:37;;;;;;;38.80;18.17;;;5.00;99.90;;;;;;5050358;28;20691;-77
2022/01/25 03:55:04;;;;;;;37.87;19.47;;;5.00;99.90;;;;;;5049029;28;20172;-77
2022/01/25 03:57:30;;;;;;;37.30;18.30;;;5.00;99.90;;;;;;5050817;28;20536;-76
2022/01/25 04:00:00;;;;;;;40.43;19.07;;;5.00;99.90;;;;;;5049932;28;20221;-77
2022/01/25 04:02:29;;;;;;;42.53;18.83;;;5.00;99.90;;;;;;5049029;28;20647;-77
2022/01/25 04:04:56;;;;;;;38.47;18.13;;;5.00;99.90;;;;;;5049155;28;20274;-77
2022/01/25 04:07:30;;;;;;;38.33;18.10;;;4.90;99.90;;;;;;5047233;28;20208;-77
2022/01/25 04:09:56;;;;;;;34.70;17.43;;;4.90;99.90;;;;;;5048622;28;20191;-78
2022/01/25 04:12:21;;;;;;;33.63;16.40;;;4.90;99.90;;;;;;5049546;28;20232;-75
2022/01/25 04:14:47;;;;;;;33.17;16.87;;;4.90;99.90;;;;;;5049602;28;20213;-76
2022/01/25 04:17:17;;;;;;;33.77;16.63;;;5.00;99.90;;;;;;5050716;28;20286;-77
2022/01/25 04:19:47;;;;;;;36.73;17.83;;;4.90;99.90;;;;;;5048229;28;20594;-76
2022/01/25 04:25:14;;;;;;;37.00;17.43;;;4.90;99.90;;;;;;5050580;28;20179;-75
2022/01/25 04:27:39;;;;;;;33.93;16.53;;;4.90;99.90;;;;;;5050391;28;20279;-73
2022/01/25 04:30:07;;;;;;;35.73;16.73;;;4.90;99.90;;;;;;5049800;28;20734;-76
2022/01/25 04:35:26;;;;;;;35.90;16.47;;;5.00;99.90;;;;;;5049307;28;20305;-76
2022/01/25 04:59:47;;;;;;;31.83;16.30;;;5.00;99.90;;;;;;5052668;28;20277;-76
2022/01/25 05:02:19;;;;;;;33.70;15.37;;;5.00;99.90;;;;;;5052170;28;20215;-75
2022/01/25 05:04:58;;;;;;;32.70;16.63;;;5.10;99.90;;;;;;5053116;28;20287;-76
2022/01/25 05:10:16;;;;;;;32.03;15.63;;;5.10;99.90;;;;;;5028545;28;20243;-77
2022/01/25 05:12:46;;;;;;;31.30;15.90;;;5.10;99.90;;;;;;5053789;28;20205;-78
2022/01/25 05:15:23;;;;;;;35.13;16.37;;;5.10;99.90;;;;;;5053110;28;20208;-76
2022/01/25 05:18:04;;;;;;;29.47;15.83;;;5.00;99.90;;;;;;5053151;28;20203;-77
2022/01/25 05:23:14;;;;;;;32.53;16.27;;;5.10;99.90;;;;;;5053435;28;20730;-76
2022/01/25 05:25:39;;;;;;;30.97;15.90;;;5.10;99.90;;;;;;5053447;28;20204;-75
2022/01/25 05:28:05;;;;;;;32.30;16.00;;;5.10;99.90;;;;;;5051328;28;20581;-75
2022/01/25 05:30:30;;;;;;;32.77;15.47;;;5.10;99.90;;;;;;5053076;28;20190;-76
2022/01/25 05:32:56;;;;;;;30.40;15.40;;;5.10;99.90;;;;;;5051919;28;20210;-76
2022/01/25 05:35:21;;;;;;;33.60;15.87;;;5.10;99.90;;;;;;5046739;28;20279;-74
2022/01/25 05:37:47;;;;;;;31.77;15.07;;;5.10;99.90;;;;;;5051685;28;20207;-76
2022/01/25 05:40:28;;;;;;;37.33;17.43;;;5.10;99.90;;;;;;5051452;28;20292;-76
2022/01/25 05:44:00;;;;;;;33.30;16.03;;;5.00;99.90;;;;;;5052132;28;20203;-77
2022/01/25 05:48:19;;;;;;;31.67;15.53;;;5.00;99.90;;;;;;5053367;28;20217;-76
2022/01/25 05:50:45;;;;;;;30.30;15.27;;;5.10;99.90;;;;;;5051195;28;20754;-76
2022/01/25 05:53:10;;;;;;;29.80;15.33;;;5.10;99.90;;;;;;5050384;28;20207;-75
2022/01/25 05:55:36;;;;;;;31.40;16.03;;;5.10;99.90;;;;;;5052711;28;20703;-76
2022/01/25 05:58:01;;;;;;;33.13;15.67;;;5.10;99.90;;;;;;5051298;28;20378;-76
2022/01/25 06:00:27;;;;;;;30.67;14.47;;;5.10;99.90;;;;;;5066808;23;20280;-73
2022/01/25 06:02:55;;;;;;;32.50;16.37;;;5.10;99.90;;;;;;5064438;28;20698;-73
2022/01/25 06:05:20;;;;;;;33.13;15.70;;;5.00;99.90;;;;;;5064267;28;20246;-73
2022/01/25 06:07:48;;;;;;;32.40;14.67;;;5.10;99.90;;;;;;5060734;28;20278;-74
2022/01/25 06:10:13;;;;;;;29.63;14.73;;;5.10;99.90;;;;;;5028715;28;20204;-73
2022/01/25 06:12:42;;;;;;;35.73;17.07;;;5.10;99.90;;;;;;5034949;28;20201;-74
2022/01/25 06:15:08;;;;;;;33.13;15.67;;;5.10;99.90;;;;;;5043779;28;20584;-75
2022/01/25 06:17:34;;;;;;;33.73;15.77;;;5.00;99.90;;;;;;5042035;28;20272;-75
2022/01/25 06:20:00;;;;;;;33.50;15.77;;;5.00;99.90;;;;;;5027540;28;20236;-75
2022/01/25 06:22:25;;;;;;;31.87;16.43;;;5.00;99.90;;;;;;5035850;28;20215;-74
2022/01/25 06:24:51;;;;;;;34.63;16.97;;;5.00;99.90;;;;;;5036136;28;20183;-74
2022/01/25 06:27:16;;;;;;;32.63;17.07;;;5.00;99.90;;;;;;5044444;28;20258;-74
2022/01/25 06:29:42;;;;;;;38.20;17.03;;;4.90;99.90;;;;;;5040027;28;20254;-73
2022/01/25 06:32:07;;;;;;;32.43;15.77;;;4.90;99.90;;;;;;5038564;28;20203;-74
2022/01/25 06:34:33;;;;;;;32.37;15.97;;;4.90;99.90;;;;;;5043548;28;20582;-73
2022/01/25 06:36:59;;;;;;;37.77;17.63;;;5.00;99.90;;;;;;5033972;28;20651;-74
2022/01/25 06:39:25;;;;;;;33.17;16.10;;;5.10;99.90;;;;;;5035417;28;20274;-73
2022/01/25 06:41:51;;;;;;;36.23;17.83;;;5.10;99.90;;;;;;5033788;28;20206;-73
2022/01/25 06:44:16;;;;;;;35.83;16.90;;;5.10;99.90;;;;;;5033672;28;20225;-73
2022/01/25 06:46:42;;;;;;;38.00;18.27;;;5.00;99.90;;;;;;5032589;28;20593;-73
2022/01/25 06:49:07;;;;;;;34.47;17.20;;;5.00;99.90;;;;;;5037940;28;20215;-74
2022/01/25 06:51:33;;;;;;;34.40;16.67;;;5.00;99.90;;;;;;5041838;28;20180;-73
2022/01/25 06:53:59;;;;;;;36.60;17.50;;;5.00;99.90;;;;;;5048721;28;20672;-73
2022/01/25 06:56:25;;;;;;;35.50;17.87;;;5.00;99.90;;;;;;5033280;28;20211;-74
2022/01/25 06:58:50;;;;;;;37.27;16.80;;;5.00;99.90;;;;;;5042689;28;20211;-74
2022/01/25 07:01:17;;;;;;;37.63;17.83;;;5.00;99.90;;;;;;5035480;28;20220;-73
2022/01/25 07:03:43;;;;;;;36.60;18.17;;;5.00;99.90;;;;;;5033255;28;20230;-74
2022/01/25 07:06:08;;;;;;;36.10;18.63;;;5.00;99.90;;;;;;5036428;28;20227;-73
2022/01/25 07:08:34;;;;;;;37.37;18.27;;;4.90;99.90;;;;;;5031229;28;20211;-73
2022/01/25 07:10:59;;;;;;;38.23;18.17;;;4.90;99.90;;;;;;5050734;28;20217;-74
2022/01/25 07:13:25;;;;;;;41.90;19.07;;;4.90;99.90;;;;;;5051277;28;20675;-74
2022/01/25 07:15:51;;;;;;;35.70;18.23;;;5.00;99.90;;;;;;5051218;28;20184;-74
2022/01/25 07:18:16;;;;;;;41.70;19.13;;;5.00;99.90;;;;;;5051416;28;20554;-73
2022/01/25 07:20:42;;;;;;;41.17;19.67;;;5.00;99.90;;;;;;5047889;28;20240;-74
2022/01/25 07:23:07;;;;;;;37.07;18.53;;;5.00;99.90;;;;;;5045736;28;20218;-74
2022/01/25 07:25:33;;;;;;;39.23;19.57;;;4.90;99.90;;;;;;5048912;28;20219;-74
2022/01/25 07:27:58;;;;;;;38.47;20.13;;;4.90;99.90;;;;;;5039107;28;20188;-76
2022/01/25 07:30:24;;;;;;;43.17;18.83;;;4.90;99.90;;;;;;5048035;28;20222;-74
2022/01/25 07:32:49;;;;;;;37.37;19.90;;;4.90;99.90;;;;;;5042876;28;20212;-73
2022/01/25 07:35:15;;;;;;;39.77;19.67;;;4.80;99.90;;;;;;5034949;28;20598;-73
2022/01/25 07:37:40;;;;;;;43.77;19.20;;;4.70;99.90;;;;;;5024112;28;20218;-71
2022/01/25 07:40:07;;;;;;;44.83;20.63;;;4.80;99.90;;;;;;5047538;28;20214;-74
2022/01/25 07:42:36;;;;;;;43.73;20.37;;;4.80;99.90;;;;;;5045912;28;20287;-75
2022/01/25 07:45:07;;;;;;;52.83;19.77;;;4.90;99.90;;;;;;5053952;28;20219;-74
2022/01/25 07:47:33;;;;;;;45.80;19.47;;;4.80;99.90;;;;;;5030680;28;20211;-74
2022/01/25 07:49:58;;;;;;;42.17;19.83;;;4.80;99.90;;;;;;5026412;28;20214;-75
2022/01/25 07:52:24;;;;;;;44.13;20.23;;;4.90;99.90;;;;;;5039613;28;20210;-76
2022/01/25 07:54:51;;;;;;;40.70;19.93;;;5.00;99.90;;;;;;5042006;28;20186;-75
2022/01/25 07:57:16;;;;;;;45.10;20.23;;;5.00;99.90;;;;;;5043042;28;20183;-73
2022/01/25 07:59:42;;;;;;;44.67;19.90;;;4.90;99.90;;;;;;5038555;28;20294;-77
2022/01/25 08:02:12;;;;;;;43.47;19.80;;;4.90;99.90;;;;;;5045405;28;20654;-74
2022/01/25 08:04:38;;;;;;;47.30;20.13;;;4.90;99.90;;;;;;5042150;28;20254;-75
2022/01/25 08:07:03;;;;;;;43.30;19.17;;;4.90;99.90;;;;;;5042799;28;20183;-75
2022/01/25 08:09:29;;;;;;;47.57;21.33;;;5.00;99.90;;;;;;5033129;28;20200;-74
2022/01/25 08:11:54;;;;;;;46.03;19.63;;;5.10;99.90;;;;;;5038927;28;20227;-75
2022/01/25 08:14:20;;;;;;;42.73;21.17;;;5.10;99.90;;;;;;5039119;28;20242;-74
2022/01/25 08:16:50;;;;;;;43.00;19.40;;;5.30;99.90;;;;;;5047259;28;20645;-74
2022/01/25 08:19:16;;;;;;;39.97;19.93;;;5.30;99.90;;;;;;5037736;28;20242;-74
2022/01/25 08:21:42;;;;;;;43.70;19.63;;;5.30;99.90;;;;;;5044052;28;20171;-76
2022/01/25 08:24:10;;;;;;;40.63;19.07;;;5.30;99.90;;;;;;5047744;28;20216;-73
2022/01/25 08:26:36;;;;;;;42.37;19.30;;;5.40;99.90;;;;;;5032679;28;20208;-74
2022/01/25 08:29:02;;;;;;;43.27;18.90;;;5.40;99.90;;;;;;5033885;28;20204;-74
2022/01/25 08:31:28;;;;;;;45.63;19.80;;;5.60;99.90;;;;;;5043387;28;20204;-72
2022/01/25 08:33:53;;;;;;;42.40;20.00;;;5.70;99.90;;;;;;5054038;28;20550;-74
2022/01/25 08:36:19;;;;;;;39.70;19.93;;;5.90;99.90;;;;;;5046349;28;20675;-75
2022/01/25 08:38:45;;;;;;;37.60;19.70;;;6.20;99.90;;;;;;5042008;28;20208;-74
2022/01/25 08:41:11;;;;;;;38.80;18.70;;;6.20;99.90;;;;;;5024630;28;20216;-74
2022/01/25 08:43:36;;;;;;;37.87;18.67;;;6.20;99.90;;;;;;5032435;28;20290;-74
2022/01/25 08:46:03;;;;;;;36.77;19.10;;;5.90;99.90;;;;;;5047720;28;20180;-75
2022/01/25 08:48:28;;;;;;;44.77;19.97;;;5.80;99.90;;;;;;5036654;28;20187;-74
2022/01/25 08:50:54;;;;;;;39.60;19.40;;;5.60;99.90;;;;;;5041855;28;20212;-74
2022/01/25 08:53:20;;;;;;;37.30;18.73;;;5.60;99.90;;;;;;5050216;28;20623;-74
2022/01/25 08:55:45;;;;;;;35.83;17.80;;;5.60;99.90;;;;;;5045227;28;20228;-74
2022/01/25 08:58:11;;;;;;;37.43;19.03;;;5.70;99.90;;;;;;5054297;28;20566;-74
2022/01/25 09:00:37;;;;;;;41.47;19.70;;;5.70;99.90;;;;;;5033473;28;20629;-76
2022/01/25 09:03:03;;;;;;;37.87;18.80;;;5.50;99.90;;;;;;5039562;28;20878;-74
2022/01/25 09:05:28;;;;;;;45.50;20.77;;;5.50;99.90;;;;;;5044070;28;20286;-74
2022/01/25 09:07:56;;;;;;;45.13;21.60;;;5.40;99.90;;;;;;5046720;28;20676;-74
2022/01/25 09:10:23;;;;;;;41.03;20.27;;;5.20;99.90;;;;;;5035364;28;20233;-74
2022/01/25 09:12:48;;;;;;;40.97;19.13;;;5.40;99.90;;;;;;5037424;28;20203;-74
2022/01/25 09:15:14;;;;;;;42.37;19.73;;;5.50;99.90;;;;;;5035765;28;20203;-75
2022/01/25 09:17:39;;;;;;;40.83;18.77;;;5.50;99.90;;;;;;5045019;28;20216;-74
2022/01/25 09:20:05;;;;;;;39.97;18.93;;;5.50;99.90;;;;;;5035019;28;20232;-73
2022/01/25 09:22:30;;;;;;;36.00;17.90;;;5.60;99.90;;;;;;5033532;28;20265;-74
2022/01/25 09:24:56;;;;;;;33.97;16.77;;;5.40;99.90;;;;;;5046166;28;20171;-74
2022/01/25 09:27:21;;;;;;;38.43;18.03;;;5.50;99.90;;;;;;5045228;28;20177;-73
2022/01/25 09:29:47;;;;;;;38.97;18.93;;;5.60;99.90;;;;;;5044278;28;20247;-75
2022/01/25 09:32:13;;;;;;;37.33;17.87;;;5.60;99.90;;;;;;5037521;28;20208;-74
2022/01/25 09:34:38;;;;;;;37.53;17.03;;;5.60;99.90;;;;;;5043804;28;20668;-74
2022/01/25 09:37:04;;;;;;;43.20;19.87;;;5.40;99.90;;;;;;5043186;28;20194;-74
2022/01/25 09:39:30;;;;;;;40.83;19.00;;;5.50;99.90;;;;;;5044631;28;20231;-74
2022/01/25 09:41:55;;;;;;;42.97;18.03;;;5.50;99.90;;;;;;5040132;28;20255;-73
2022/01/25 09:44:23;;;;;;;36.63;17.53;;;5.50;99.90;;;;;;5040870;28;20312;-73
2022/01/25 09:46:54;;;;;;;37.23;16.97;;;5.50;99.90;;;;;;5036369;28;20715;-74
2022/01/25 09:49:19;;;;;;;39.10;18.23;;;5.50;99.90;;;;;;5042806;28;20302;-74
2022/01/25 09:51:47;;;;;;;44.17;19.87;;;5.50;99.90;;;;;;5034688;28;20266;-73
2022/01/25 09:54:13;;;;;;;39.13;18.83;;;5.50;99.90;;;;;;5045691;28;20748;-75
2022/01/25 09:56:39;;;;;;;41.97;18.07;;;5.60;99.90;;;;;;5033670;28;20298;-75
2022/01/25 09:59:04;;;;;;;44.57;19.30;;;5.60;99.90;;;;;;5052422;28;20238;-74
2022/01/25 10:01:32;;;;;;;34.30;17.50;;;5.60;99.90;;;;;;5043023;28;20210;-74
2022/01/25 10:03:59;;;;;;;38.43;18.57;;;5.50;99.90;;;;;;5045777;28;20746;-75
2022/01/25 10:06:31;;;;;;;40.17;18.43;;;5.50;99.90;;;;;;5043830;28;20519;-74
2022/01/25 10:08:57;;;;;;;35.57;16.63;;;5.50;99.90;;;;;;5022600;28;20204;-75
2022/01/25 10:11:25;;;;;;;37.03;18.20;;;5.50;99.90;;;;;;5041099;28;20208;-74
2022/01/25 10:13:55;;;;;;;36.90;18.80;;;5.50;99.90;;;;;;5040219;28;20207;-74
2022/01/25 10:16:43;;;;;;;35.53;17.13;;;5.40;99.90;;;;;;5014517;28;20232;-73
2022/01/25 10:19:11;;;;;;;42.93;17.67;;;5.50;99.90;;;;;;5038565;28;20227;-73
2022/01/25 10:21:43;;;;;;;34.53;17.93;;;5.60;99.90;;;;;;5042300;28;20597;-73
2022/01/25 10:24:13;;;;;;;36.53;16.33;;;5.40;99.90;;;;;;5043604;28;20591;-74
2022/01/25 10:26:50;;;;;;;38.30;17.27;;;5.50;99.90;;;;;;5043848;28;20338;-75
2022/01/25 10:29:18;;;;;;;35.50;17.77;;;5.60;99.90;;;;;;5033881;28;20319;-74
2022/01/25 10:31:46;;;;;;;33.50;16.33;;;5.60;99.90;;;;;;5031076;28;20211;-74
2022/01/25 10:34:15;;;;;;;33.50;15.13;;;5.60;99.90;;;;;;5031942;28;20219;-73
2022/01/25 10:36:45;;;;;;;36.40;15.20;;;5.60;99.90;;;;;;5043569;28;20176;-73
2022/01/25 10:39:12;;;;;;;37.93;15.87;;;5.60;99.90;;;;;;5033535;28;20215;-73
2022/01/25 10:41:39;;;;;;;28.87;14.07;;;5.60;99.90;;;;;;5034738;28;20204;-74
2022/01/25 10:44:06;;;;;;;33.53;14.70;;;5.70;99.90;;;;;;5032622;28;20218;-74
2022/01/25 10:46:32;;;;;;;34.37;17.00;;;5.60;99.90;;;;;;5033069;28;20277;-73
2022/01/25 10:49:06;;;;;;;34.50;14.97;;;5.70;99.90;;;;;;5042795;28;20180;-73
2022/01/25 10:51:41;;;;;;;30.30;13.80;;;5.70;99.90;;;;;;5031964;28;20182;-73
2022/01/25 10:54:14;;;;;;;29.23;13.83;;;5.60;99.90;;;;;;5033667;28;20663;-73
2022/01/25 10:56:46;;;;;;;32.03;13.97;;;5.50;99.90;;;;;;5051141;28;20211;-73
2022/01/25 10:59:29;;;;;;;27.63;13.70;;;5.50;99.90;;;;;;5042792;28;20211;-74
2022/01/25 11:01:58;;;;;;;26.67;12.53;;;5.50;99.90;;;;;;5030978;28;20207;-75
2022/01/25 11:04:28;;;;;;;31.13;13.60;;;5.50;99.90;;;;;;5039648;28;20575;-74
2022/01/25 11:06:57;;;;;;;31.33;14.80;;;5.50;99.90;;;;;;5031458;28;20177;-74
2022/01/25 11:09:25;;;;;;;30.00;14.03;;;5.70;99.90;;;;;;5039750;28;20205;-73
2022/01/25 11:11:55;;;;;;;27.17;13.20;;;5.80;99.90;;;;;;5051129;28;20216;-73
2022/01/25 11:17:04;;;;;;;23.40;11.67;;;5.70;99.90;;;;;;5031032;28;20307;-74
2022/01/25 11:19:30;;;;;;;22.30;10.60;;;5.60;99.90;;;;;;5030719;28;20705;-73
2022/01/25 11:21:58;;;;;;;21.97;11.03;;;5.70;99.90;;;;;;5040940;28;20215;-74
2022/01/25 11:24:25;;;;;;;23.53;11.33;;;5.80;99.90;;;;;;5051156;28;20277;-73
2022/01/25 11:26:52;;;;;;;20.47;10.87;;;5.90;99.90;;;;;;5026194;28;20291;-74
2022/01/25 11:29:19;;;;;;;24.03;12.13;;;5.90;99.90;;;;;;5042521;28;20266;-72
2022/01/25 11:31:55;;;;;;;25.97;11.23;;;6.00;99.90;;;;;;5042629;28;20589;-73
2022/01/25 11:34:26;;;;;;;21.17;10.63;;;6.10;99.90;;;;;;5050807;28;20215;-74
2022/01/25 11:36:54;;;;;;;23.63;11.17;;;6.10;99.90;;;;;;5032947;28;20176;-73
2022/01/25 11:39:23;;;;;;;19.03;10.93;;;6.10;99.90;;;;;;5042777;28;20204;-74
2022/01/25 11:41:49;;;;;;;18.30;10.00;;;6.10;99.90;;;;;;5038963;28;20210;-73
2022/01/25 11:44:26;;;;;;;22.37;10.67;;;6.10;99.90;;;;;;5038963;28;20783;-73
2022/01/25 11:46:58;;;;;;;23.23;11.43;;;6.20;99.90;;;;;;5039103;28;20212;-73
2022/01/25 11:49:24;;;;;;;20.43;10.43;;;6.30;99.90;;;;;;5030819;28;20722;-74
2022/01/25 11:52:12;;;;;;;22.33;10.27;;;6.20;99.90;;;;;;5024608;28;20173;-73
2022/01/25 11:54:40;;;;;;;19.93;9.10;;;6.30;99.90;;;;;;5050229;28;20179;-73
2022/01/25 11:57:15;;;;;;;22.47;9.87;;;6.10;99.90;;;;;;5031303;28;20237;-73
2022/01/25 11:59:42;;;;;;;22.07;10.23;;;6.00;99.90;;;;;;5037534;28;20215;-73
2022/01/25 12:02:08;;;;;;;20.37;9.93;;;5.90;99.90;;;;;;5046436;28;20702;-73
2022/01/25 12:04:34;;;;;;;20.90;10.13;;;5.90;99.90;;;;;;5036557;28;20211;-74
2022/01/25 12:07:08;;;;;;;21.73;10.97;;;5.90;99.90;;;;;;5036862;28;20172;-73
2022/01/25 12:09:48;;;;;;;17.83;9.33;;;5.90;99.90;;;;;;5046348;28;20290;-73
2022/01/25 12:12:15;;;;;;;20.10;10.27;;;5.90;99.90;;;;;;5046699;28;20668;-73
2022/01/25 12:14:50;;;;;;;18.70;9.97;;;5.80;99.90;;;;;;5043347;28;20220;-73
2022/01/25 12:17:24;;;;;;;24.63;11.50;;;5.90;99.90;;;;;;5042811;28;20242;-74
2022/01/25 12:20:02;;;;;;;23.00;10.37;;;5.80;99.90;;;;;;5020668;28;20360;-74
2022/01/25 12:22:40;;;;;;;21.10;9.80;;;5.80;99.90;;;;;;5045919;28;20207;-74
2022/01/25 12:25:23;;;;;;;23.30;10.80;;;5.80;99.90;;;;;;5047929;28;20207;-74
2022/01/25 12:27:59;;;;;;;21.43;11.10;;;5.80;99.90;;;;;;5024102;28;20207;-73
2022/01/25 12:30:33;;;;;;;21.60;10.77;;;5.80;99.90;;;;;;5043219;28;20214;-73
2022/01/25 12:33:08;;;;;;;21.20;9.90;;;5.80;99.90;;;;;;5036431;28;20259;-74
2022/01/25 12:35:45;;;;;;;19.47;9.93;;;5.80;99.90;;;;;;5035832;28;20211;-74
2022/01/25 12:38:19;;;;;;;27.40;12.07;;;5.80;99.90;;;;;;5054014;28;20230;-74
2022/01/25 12:40:51;;;;;;;20.90;10.90;;;5.90;99.90;;;;;;5050440;28;20302;-74
2022/01/25 12:43:21;;;;;;;23.90;10.77;;;5.90;99.90;;;;;;5043038;28;20247;-74
2022/01/25 12:45:54;;;;;;;20.40;10.97;;;5.90;99.90;;;;;;5039923;28;20174;-73
2022/01/25 12:48:32;;;;;;;22.43;10.80;;;5.90;99.90;;;;;;5048486;28;20299;-75
2022/01/25 12:51:01;;;;;;;24.10;11.37;;;5.90;99.90;;;;;;5044693;28;20212;-74
2022/01/25 12:53:29;;;;;;;25.33;13.13;;;5.80;99.90;;;;;;5053140;28;20245;-74
2022/01/25 12:55:59;;;;;;;22.30;11.23;;;5.90;99.90;;;;;;5041049;28;20684;-73
2022/01/25 12:58:30;;;;;;;25.03;12.97;;;5.90;99.90;;;;;;5046348;28;20204;-74
2022/01/25 13:00:59;;;;;;;25.97;12.00;;;5.90;99.90;;;;;;5041662;28;20661;-75
2022/01/25 13:03:29;;;;;;;24.70;12.47;;;5.90;99.90;;;;;;5025228;28;20205;-74
2022/01/25 13:06:16;;;;;;;23.50;12.23;;;5.90;99.90;;;;;;5035561;28;20254;-74
2022/01/25 13:08:59;;;;;;;27.53;13.03;;;5.90;99.90;;;;;;5044304;28;20227;-74
2022/01/25 13:11:47;;;;;;;26.83;12.60;;;5.90;99.90;;;;;;5045115;28;20207;-73
2022/01/25 13:16:45;;;;;;;27.83;14.17;;;5.90;99.90;;;;;;5044091;28;20681;-74
2022/01/25 13:19:11;;;;;;;28.27;13.20;;;5.90;99.90;;;;;;5046036;28;20212;-73
2022/01/25 13:22:00;;;;;;;25.23;12.17;;;5.90;99.90;;;;;;5044103;28;20222;-74
2022/01/25 13:24:31;;;;;;;27.07;12.47;;;5.90;99.90;;;;;;5034411;28;20212;-74
2022/01/25 13:27:08;;;;;;;33.30;13.97;;;5.90;99.90;;;;;;5045173;28;20210;-74
2022/01/25 13:32:51;;;;;;;26.73;13.77;;;5.90;99.90;;;;;;5045018;28;20632;-73
2022/01/25 13:35:28;;;;;;;35.60;15.10;;;5.90;99.90;;;;;;5044764;28;20211;-74
2022/01/25 13:38:04;;;;;;;28.33;14.43;;;5.90;99.90;;;;;;5032618;28;20212;-74
2022/01/25 13:40:38;;;;;;;31.00;15.07;;;5.90;99.90;;;;;;5024362;28;20261;-73
2022/01/25 13:43:29;;;;;;;27.20;14.13;;;6.00;99.90;;;;;;5044661;28;20191;-73
2022/01/25 13:45:57;;;;;;;30.10;14.57;;;6.00;99.90;;;;;;5045298;28;20644;-75
2022/01/25 13:48:24;;;;;;;29.17;13.93;;;6.00;99.90;;;;;;5035113;28;20187;-74
2022/01/25 13:51:06;;;;;;;29.63;15.30;;;5.90;99.90;;;;;;5044399;28;20208;-74
2022/01/25 13:53:33;;;;;;;28.80;14.00;;;5.90;99.90;;;;;;5049354;28;20239;-74
2022/01/25 13:56:01;;;;;;;33.53;14.93;;;5.90;99.90;;;;;;5044298;28;20211;-74
2022/01/25 13:58:31;;;;;;;32.90;14.87;;;5.90;99.90;;;;;;5043258;28;20212;-74
2022/01/25 14:00:58;;;;;;;31.60;14.27;;;5.90;99.90;;;;;;5040475;28;20561;-74
2022/01/25 14:03:31;;;;;;;32.60;15.30;;;5.90;99.90;;;;;;5023921;28;20284;-74
2022/01/25 14:05:57;;;;;;;34.27;16.17;;;5.80;99.90;;;;;;5044061;28;20715;-74
2022/01/25 14:08:39;;;;;;;31.27;15.33;;;5.90;99.90;;;;;;5034269;28;20207;-74
2022/01/25 14:11:35;;;;;;;30.90;14.83;;;5.90;99.90;;;;;;5043827;28;20208;-74
2022/01/25 14:25:48;;;;;;;31.37;14.60;;;5.80;99.90;;;;;;4970494;28;20210;-73
2022/01/25 14:28:19;;;;;;;34.37;15.67;;;5.80;99.90;;;;;;4970814;28;20319;-74
2022/01/25 14:30:47;;;;;;;34.93;15.53;;;5.90;99.90;;;;;;5014841;28;20208;-74
2022/01/25 14:33:16;;;;;;;31.73;15.37;;;5.90;99.90;;;;;;5044716;28;20576;-74
2022/01/25 14:35:49;;;;;;;34.40;15.53;;;5.90;99.90;;;;;;5024954;28;20591;-75
2022/01/25 14:38:29;;;;;;;29.37;14.30;;;5.80;99.90;;;;;;5043393;28;20222;-74
2022/01/25 14:41:04;;;;;;;31.13;15.20;;;5.80;99.90;;;;;;5030203;28;20223;-74
2022/01/25 14:43:33;;;;;;;27.50;13.27;;;5.80;99.90;;;;;;5041201;28;20226;-74
2022/01/25 14:46:10;;;;;;;33.67;14.83;;;5.70;99.90;;;;;;5033502;28;20179;-74
2022/01/25 14:48:38;;;;;;;29.13;13.90;;;5.70;99.90;;;;;;5043514;28;20176;-74
2022/01/25 14:51:06;;;;;;;27.50;12.93;;;5.70;99.90;;;;;;5033316;28;20216;-74
2022/01/25 14:53:31;;;;;;;28.77;13.93;;;5.70;99.90;;;;;;5051311;28;20210;-74
2022/01/25 14:56:00;;;;;;;32.33;15.00;;;5.70;99.90;;;;;;5033449;28;20206;-75